createdAt,value
2022-11-22T00:00:14.558Z,2.63
2022-11-22T00:02:41.657Z,2.50
2022-11-22T00:05:08.833Z,2.33
2022-11-22T00:07:37.871Z,2.60
2022-11-22T00:10:09.498Z,2.03
2022-11-22T00:12:36.695Z,2.30
2022-11-22T00:15:04.091Z,2.03
2022-11-22T00:17:32.142Z,2.10
2022-11-22T00:19:59.241Z,2.27
2022-11-22T00:22:26.551Z,2.30
2022-11-22T00:24:53.853Z,2.50
2022-11-22T00:27:21.004Z,2.40
2022-11-22T00:29:48.089Z,2.40
2022-11-22T00:32:15.374Z,2.50
2022-11-22T00:34:42.452Z,2.30
2022-11-22T00:37:09.702Z,2.40
2022-11-22T00:39:36.838Z,2.40
2022-11-22T00:42:03.995Z,2.30
2022-11-22T00:44:31.063Z,2.40
2022-11-22T00:46:58.181Z,2.30
2022-11-22T00:49:25.316Z,2.40
2022-11-22T00:51:52.493Z,2.63
2022-11-22T00:54:19.613Z,2.60
2022-11-22T00:56:46.678Z,2.30
2022-11-22T00:59:13.827Z,2.40
2022-11-22T01:01:41.018Z,2.50
2022-11-22T01:04:08.111Z,2.40
2022-11-22T01:06:35.194Z,2.47
2022-11-22T01:09:02.315Z,2.50
2022-11-22T01:11:29.435Z,2.27
2022-11-22T01:13:56.524Z,2.30
2022-11-22T01:16:23.604Z,2.60
2022-11-22T01:18:50.686Z,2.40
2022-11-22T01:21:17.765Z,2.10
2022-11-22T01:23:44.923Z,2.40
2022-11-22T01:26:13.162Z,2.27
2022-11-22T01:28:40.324Z,2.10
2022-11-22T01:31:07.468Z,2.10
2022-11-22T01:33:34.589Z,2.37
2022-11-22T01:36:01.689Z,2.07
2022-11-22T01:38:28.898Z,2.50
2022-11-22T01:40:56.083Z,2.47
2022-11-22T01:43:24.255Z,2.57
2022-11-22T01:45:55.615Z,2.60
2022-11-22T01:48:31.799Z,2.80
2022-11-22T01:51:03.098Z,2.70
2022-11-22T01:53:37.878Z,2.50
2022-11-22T01:56:06.881Z,2.60
2022-11-22T01:58:35.096Z,2.30
2022-11-22T02:01:02.622Z,2.40
2022-11-22T02:03:30.328Z,2.60
2022-11-22T02:05:57.781Z,2.50
2022-11-22T02:08:27.578Z,2.50
2022-11-22T02:10:56.129Z,2.70
2022-11-22T02:13:24.418Z,2.40
2022-11-22T02:15:52.802Z,2.40
2022-11-22T02:18:20.180Z,2.20
2022-11-22T02:20:47.341Z,2.00
2022-11-22T02:23:22.210Z,2.33
2022-11-22T02:25:59.637Z,2.30
2022-11-22T02:28:29.351Z,2.40
2022-11-22T02:30:56.525Z,2.30
2022-11-22T02:33:23.804Z,2.43
2022-11-22T02:35:50.970Z,2.10
2022-11-22T02:38:20.153Z,2.30
2022-11-22T02:40:55.410Z,2.47
2022-11-22T02:43:24.196Z,2.10
2022-11-22T02:45:51.404Z,2.33
2022-11-22T02:48:19.094Z,2.03
2022-11-22T02:50:46.506Z,2.30
2022-11-22T02:53:13.984Z,2.10
2022-11-22T02:55:41.134Z,2.10
2022-11-22T02:58:08.324Z,2.13
2022-11-22T03:00:36.265Z,2.20
2022-11-22T03:03:03.506Z,2.30
2022-11-22T03:05:30.577Z,2.20
2022-11-22T03:07:57.652Z,2.10
2022-11-22T03:10:24.732Z,2.00
2022-11-22T03:12:51.897Z,2.00
2022-11-22T03:15:19.000Z,2.07
2022-11-22T03:17:46.129Z,2.10
2022-11-22T03:20:13.411Z,2.20
2022-11-22T03:22:40.541Z,2.10
2022-11-22T03:25:07.953Z,2.00
2022-11-22T03:27:35.033Z,2.40
2022-11-22T03:30:02.145Z,2.10
2022-11-22T03:32:29.263Z,2.07
2022-11-22T03:34:56.300Z,2.00
2022-11-22T03:37:23.492Z,2.10
2022-11-22T03:39:50.559Z,1.90
2022-11-22T03:42:21.594Z,2.10
2022-11-22T03:44:49.303Z,2.10
2022-11-22T03:47:16.381Z,1.90
2022-11-22T03:49:43.466Z,2.00
2022-11-22T03:52:10.589Z,2.03
2022-11-22T03:54:38.369Z,1.90
2022-11-22T03:57:05.790Z,1.73
2022-11-22T03:59:32.903Z,2.20
2022-11-22T04:02:00.147Z,1.97
2022-11-22T04:04:27.331Z,2.03
2022-11-22T04:06:54.407Z,2.00
2022-11-22T04:09:21.548Z,1.80
2022-11-22T04:11:48.688Z,2.20
2022-11-22T04:14:34.611Z,2.30
2022-11-22T04:17:01.747Z,2.00
2022-11-22T04:19:29.326Z,1.87
2022-11-22T04:21:56.524Z,2.00
2022-11-22T04:24:42.570Z,2.10
2022-11-22T04:27:09.652Z,2.30
2022-11-22T04:29:36.745Z,2.20
2022-11-22T04:32:22.693Z,2.20
2022-11-22T04:34:49.782Z,2.40
2022-11-22T04:37:16.879Z,2.20
2022-11-22T04:39:43.958Z,2.50
2022-11-22T04:42:29.751Z,2.40
2022-11-22T04:44:56.899Z,2.20
2022-11-22T04:47:50.614Z,2.30
2022-11-22T04:50:36.805Z,2.13
2022-11-22T04:53:03.880Z,2.13
2022-11-22T04:55:30.971Z,2.50
2022-11-22T04:58:00.270Z,2.23
2022-11-22T05:00:28.329Z,2.40
2022-11-22T05:02:55.484Z,2.20
2022-11-22T05:05:22.724Z,2.67
2022-11-22T05:07:49.883Z,2.47
2022-11-22T05:10:21.301Z,2.90
2022-11-22T05:12:51.801Z,2.70
2022-11-22T05:15:18.930Z,2.97
2022-11-22T05:17:46.024Z,2.57
2022-11-22T05:20:13.234Z,2.70
2022-11-22T05:22:58.882Z,2.70
2022-11-22T05:25:26.048Z,2.70
2022-11-22T05:27:56.188Z,2.60
2022-11-22T05:30:23.351Z,3.00
2022-11-22T05:32:50.538Z,3.00
2022-11-22T05:35:17.673Z,3.00
2022-11-22T05:37:44.753Z,2.93
2022-11-22T05:40:12.198Z,3.33
2022-11-22T05:42:39.308Z,2.97
2022-11-22T05:45:06.792Z,2.93
2022-11-22T05:47:34.617Z,3.33
2022-11-22T05:50:01.738Z,3.07
2022-11-22T05:52:28.810Z,3.70
2022-11-22T05:54:55.877Z,3.33
2022-11-22T05:57:23.153Z,2.90
2022-11-22T05:59:50.287Z,3.67
2022-11-22T06:02:17.460Z,3.50
2022-11-22T06:04:44.622Z,3.30
2022-11-22T06:07:11.778Z,3.57
2022-11-22T06:09:39.038Z,3.43
2022-11-22T06:12:06.235Z,3.77
2022-11-22T06:14:34.070Z,4.07
2022-11-22T06:17:03.478Z,4.10
2022-11-22T06:19:30.652Z,4.07
2022-11-22T06:21:57.814Z,4.23
2022-11-22T06:24:24.985Z,4.10
2022-11-22T06:26:52.058Z,4.27
2022-11-22T06:29:19.137Z,4.23
2022-11-22T06:31:46.257Z,4.20
2022-11-22T06:34:14.033Z,4.40
2022-11-22T06:36:41.157Z,5.00
2022-11-22T06:39:08.256Z,4.87
2022-11-22T06:41:36.180Z,4.60
2022-11-22T06:44:07.211Z,5.30
2022-11-22T06:46:34.704Z,5.17
2022-11-22T06:49:01.814Z,5.30
2022-11-22T06:51:30.468Z,5.10
2022-11-22T06:53:58.144Z,5.13
2022-11-22T06:56:29.711Z,5.20
2022-11-22T06:58:56.810Z,5.30
2022-11-22T07:01:25.308Z,5.30
2022-11-22T07:03:57.870Z,5.37
2022-11-22T07:06:28.924Z,5.40
2022-11-22T07:08:56.034Z,4.90
2022-11-22T07:11:24.494Z,5.50
2022-11-22T07:13:51.733Z,5.30
2022-11-22T07:16:20.325Z,5.20
2022-11-22T07:18:47.914Z,5.73
2022-11-22T07:21:16.150Z,4.80
2022-11-22T07:23:44.110Z,4.90
2022-11-22T07:26:11.929Z,4.90
2022-11-22T07:28:39.117Z,5.10
2022-11-22T07:31:07.886Z,4.90
2022-11-22T07:33:35.245Z,5.20
2022-11-22T07:36:06.506Z,4.87
2022-11-22T07:38:34.093Z,4.80
2022-11-22T07:41:01.547Z,4.40
2022-11-22T07:43:29.140Z,4.97
2022-11-22T07:46:03.486Z,4.57
2022-11-22T07:48:30.591Z,4.87
2022-11-22T07:50:57.674Z,4.70
2022-11-22T07:53:24.815Z,4.60
2022-11-22T07:55:51.910Z,4.70
2022-11-22T07:58:19.026Z,4.63
2022-11-22T08:00:46.645Z,4.80
2022-11-22T08:03:17.607Z,4.50
2022-11-22T08:05:45.117Z,4.40
2022-11-22T08:08:12.206Z,4.17
2022-11-22T08:10:39.267Z,4.80
2022-11-22T08:13:06.525Z,4.67
2022-11-22T08:15:33.611Z,4.47
2022-11-22T08:18:00.765Z,3.97
2022-11-22T08:20:27.875Z,3.97
2022-11-22T08:22:55.006Z,4.33
2022-11-22T08:25:22.142Z,3.93
2022-11-22T08:27:49.213Z,4.50
2022-11-22T08:30:16.372Z,4.30
2022-11-22T08:32:43.553Z,4.17
2022-11-22T08:35:10.670Z,4.10
2022-11-22T08:37:37.881Z,4.50
2022-11-22T08:40:05.238Z,4.03
2022-11-22T08:42:32.676Z,4.63
2022-11-22T08:45:00.125Z,4.40
2022-11-22T08:47:27.186Z,4.50
2022-11-22T08:49:54.385Z,4.00
2022-11-22T08:52:21.532Z,4.57
2022-11-22T08:54:48.610Z,4.07
2022-11-22T08:57:15.735Z,4.27
2022-11-22T08:59:42.900Z,4.30
2022-11-22T09:02:10.822Z,4.53
2022-11-22T09:04:37.905Z,4.67
2022-11-22T09:09:52.102Z,4.60
2022-11-22T09:12:19.265Z,4.73
2022-11-22T09:14:46.342Z,4.20
2022-11-22T09:17:17.942Z,4.50
2022-11-22T09:19:45.562Z,4.60
2022-11-22T09:22:12.641Z,4.57
2022-11-22T09:24:39.751Z,4.70
2022-11-22T09:27:07.002Z,4.73
2022-11-22T09:29:34.078Z,4.80
2022-11-22T09:32:01.390Z,4.97
2022-11-22T09:34:28.500Z,4.77
2022-11-22T09:36:55.569Z,4.80
2022-11-22T09:39:22.693Z,4.50
2022-11-22T09:42:05.589Z,4.27
2022-11-22T09:44:35.709Z,4.53
2022-11-22T09:47:08.739Z,4.47
2022-11-22T09:49:41.962Z,4.93
2022-11-22T09:52:15.804Z,4.50
2022-11-22T09:54:49.143Z,3.73
2022-11-22T09:57:19.504Z,4.20
2022-11-22T09:59:47.735Z,4.53
2022-11-22T10:02:28.710Z,4.50
2022-11-22T10:05:01.023Z,4.63
2022-11-22T10:07:31.255Z,4.60
2022-11-22T10:10:04.640Z,4.63
2022-11-22T10:12:49.905Z,4.30
2022-11-22T10:15:26.586Z,4.13
2022-11-22T10:18:04.862Z,4.17
2022-11-22T10:20:33.619Z,4.47
2022-11-22T10:23:00.873Z,4.13
2022-11-22T10:25:47.433Z,4.40
2022-11-22T10:28:14.502Z,4.43
2022-11-22T10:30:43.343Z,4.43
2022-11-22T10:33:13.193Z,4.63
2022-11-22T10:35:58.557Z,4.30
2022-11-22T10:38:28.710Z,4.20
2022-11-22T10:41:31.202Z,4.37
2022-11-22T10:44:10.443Z,4.10
2022-11-22T10:46:43.487Z,4.63
2022-11-22T10:49:19.119Z,4.37
2022-11-22T10:52:05.160Z,4.00
2022-11-22T10:54:50.004Z,4.00
2022-11-22T10:57:36.033Z,3.80
2022-11-22T11:00:24.435Z,3.90
2022-11-22T11:03:13.787Z,3.80
2022-11-22T11:09:36.141Z,3.90
2022-11-22T11:11:32.713Z,4.00
2022-11-22T11:14:26.317Z,3.70
2022-11-22T11:16:53.734Z,4.07
2022-11-22T11:19:22.521Z,4.10
2022-11-22T11:22:15.852Z,4.03
2022-11-22T11:24:42.933Z,4.10
2022-11-22T11:27:11.163Z,3.60
2022-11-22T11:29:44.553Z,3.90
2022-11-22T11:32:16.100Z,3.93
2022-11-22T11:35:01.020Z,3.60
2022-11-22T11:37:33.533Z,3.93
2022-11-22T11:40:00.621Z,3.80
2022-11-22T11:42:29.323Z,4.33
2022-11-22T11:45:16.397Z,4.00
2022-11-22T11:47:43.471Z,3.40
2022-11-22T11:50:24.364Z,4.00
2022-11-22T11:52:55.929Z,3.80
2022-11-22T11:55:23.358Z,3.87
2022-11-22T11:57:51.924Z,3.60
2022-11-22T12:00:26.260Z,3.63
2022-11-22T12:02:57.546Z,3.87
2022-11-22T12:05:31.609Z,3.63
2022-11-22T12:07:59.186Z,3.50
2022-11-22T12:10:35.821Z,3.60
2022-11-22T12:13:21.182Z,3.47
2022-11-22T12:15:55.817Z,3.30
2022-11-22T12:18:41.496Z,3.80
2022-11-22T12:21:27.415Z,3.10
2022-11-22T12:24:19.528Z,3.33
2022-11-22T12:26:44.706Z,3.30
2022-11-22T12:29:16.317Z,3.67
2022-11-22T12:31:46.283Z,3.60
2022-11-22T12:34:17.873Z,3.47
2022-11-22T12:36:47.565Z,3.50
2022-11-22T12:39:19.279Z,3.60
2022-11-22T12:41:48.432Z,3.47
2022-11-22T12:44:17.742Z,3.60
2022-11-22T12:46:47.491Z,4.93
2022-11-22T12:49:32.187Z,3.80
2022-11-22T12:52:07.012Z,3.30
2022-11-22T12:54:42.933Z,3.67
2022-11-22T12:57:33.381Z,3.40
2022-11-22T13:00:06.302Z,3.70
2022-11-22T13:02:37.729Z,3.50
2022-11-22T13:05:09.933Z,3.27
2022-11-22T13:07:37.059Z,2.87
2022-11-22T13:10:08.033Z,3.40
2022-11-22T13:12:36.971Z,3.60
2022-11-22T13:15:04.691Z,3.67
2022-11-22T13:17:34.697Z,3.33
2022-11-22T13:20:19.135Z,3.50
2022-11-22T13:22:46.196Z,3.57
2022-11-22T13:25:19.176Z,3.43
2022-11-22T13:27:48.511Z,3.70
2022-11-22T13:30:23.577Z,3.60
2022-11-22T13:33:13.732Z,3.90
2022-11-22T13:35:40.914Z,3.80
2022-11-22T13:38:27.025Z,3.80
2022-11-22T13:40:54.120Z,4.37
2022-11-22T13:43:22.991Z,4.17
2022-11-22T13:45:53.229Z,4.33
2022-11-22T13:48:47.362Z,4.00
2022-11-22T13:51:16.920Z,4.47
2022-11-22T13:53:47.974Z,4.57
2022-11-22T13:56:21.543Z,4.37
2022-11-22T13:58:50.975Z,4.67
2022-11-22T14:01:37.175Z,4.33
2022-11-22T14:04:16.680Z,4.50
2022-11-22T14:06:56.010Z,4.73
2022-11-22T14:09:26.647Z,4.50
2022-11-22T14:12:02.747Z,4.70
2022-11-22T14:14:41.376Z,4.73
2022-11-22T14:17:11.565Z,4.73
2022-11-22T14:19:57.129Z,4.60
2022-11-22T14:22:29.478Z,4.80
2022-11-22T14:24:59.354Z,4.43
2022-11-22T14:27:29.191Z,4.70
2022-11-22T14:29:56.301Z,5.00
2022-11-22T14:32:24.601Z,5.00
2022-11-22T14:35:06.765Z,5.30
2022-11-22T14:37:44.627Z,5.10
2022-11-22T14:40:27.852Z,5.17
2022-11-22T14:42:56.650Z,5.57
2022-11-22T14:45:44.366Z,5.47
2022-11-22T14:48:17.888Z,5.67
2022-11-22T14:50:48.128Z,5.80
2022-11-22T14:53:21.189Z,5.50
2022-11-22T14:55:49.216Z,5.90
2022-11-22T14:58:18.950Z,5.90
2022-11-22T15:01:04.789Z,5.63
2022-11-22T15:03:52.092Z,5.83
2022-11-22T15:09:11.064Z,5.57
2022-11-22T15:09:53.814Z,5.83
2022-11-22T15:12:27.565Z,5.87
2022-11-22T15:58:30.428Z,6.40
2022-11-22T16:01:19.192Z,6.67
2022-11-22T16:03:54.163Z,6.60
2022-11-22T16:06:25.230Z,6.80
2022-11-22T16:08:54.006Z,7.37
2022-11-22T16:11:22.358Z,6.73
2022-11-22T16:13:49.573Z,7.23
2022-11-22T16:16:16.873Z,7.47
2022-11-22T16:18:44.594Z,7.23
2022-11-22T16:21:11.680Z,7.17
2022-11-22T16:23:39.768Z,7.60
2022-11-22T16:26:39.140Z,7.43
2022-11-22T16:29:25.981Z,7.93
2022-11-22T16:32:19.926Z,7.50
2022-11-22T16:34:51.636Z,7.67
2022-11-22T16:37:27.507Z,7.77
2022-11-22T16:39:55.443Z,7.37
2022-11-22T16:42:22.794Z,7.90
2022-11-22T16:44:51.344Z,7.60
2022-11-22T16:47:19.349Z,7.93
2022-11-22T16:49:46.965Z,8.10
2022-11-22T16:52:14.432Z,8.17
2022-11-22T16:54:42.402Z,8.00
2022-11-22T16:57:16.496Z,7.97
2022-11-22T16:59:43.662Z,8.17
2022-11-22T17:02:15.234Z,8.03
2022-11-22T17:04:42.958Z,8.47
2022-11-22T17:07:11.035Z,8.27
2022-11-22T17:09:38.167Z,8.20
2022-11-22T17:12:13.105Z,8.30
2022-11-22T17:14:40.277Z,8.40
2022-11-22T17:17:07.419Z,8.67
2022-11-22T17:19:52.815Z,8.07
2022-11-22T17:22:20.581Z,8.40
2022-11-22T17:24:47.688Z,8.00
2022-11-22T17:27:15.069Z,7.70
2022-11-22T17:29:50.233Z,8.17
2022-11-22T17:32:17.665Z,7.67
2022-11-22T17:34:44.818Z,7.50
2022-11-22T17:37:12.777Z,8.47
2022-11-22T17:39:40.118Z,7.93
2022-11-22T17:42:07.221Z,7.07
2022-11-22T17:44:34.342Z,6.90
2022-11-22T17:47:01.480Z,7.93
2022-11-22T17:49:29.132Z,7.80
2022-11-22T17:51:56.505Z,7.33
2022-11-22T17:54:23.615Z,8.50
2022-11-22T17:56:50.762Z,7.90
2022-11-22T17:59:17.869Z,8.13
2022-11-22T18:01:44.968Z,9.13
2022-11-22T18:04:12.110Z,8.07
2022-11-22T18:06:39.184Z,8.67
2022-11-22T18:09:06.268Z,8.93
2022-11-22T18:11:33.584Z,8.03
2022-11-22T18:14:00.721Z,7.40
2022-11-22T18:16:31.241Z,8.00
2022-11-22T18:18:59.226Z,7.77
2022-11-22T18:21:30.524Z,7.73
2022-11-22T18:24:01.360Z,8.00
2022-11-22T18:26:39.306Z,7.53
2022-11-22T18:29:40.772Z,8.60
2022-11-22T18:31:54.283Z,7.80
2022-11-22T18:34:22.128Z,8.30
2022-11-22T18:37:01.504Z,8.13
2022-11-22T18:39:38.307Z,7.83
2022-11-22T18:42:06.586Z,7.83
2022-11-22T18:44:33.743Z,8.27
2022-11-22T18:47:00.835Z,8.53
2022-11-22T18:49:27.952Z,8.10
2022-11-22T18:51:55.775Z,8.63
2022-11-22T18:54:23.165Z,8.50
2022-11-22T18:56:50.965Z,8.50
2022-11-22T18:59:18.177Z,7.87
2022-11-22T19:01:45.285Z,8.10
2022-11-22T19:04:16.038Z,8.47
2022-11-22T19:06:43.419Z,8.13
2022-11-22T19:09:11.204Z,8.00
2022-11-22T19:11:38.320Z,8.53
2022-11-22T19:14:05.763Z,8.80
2022-11-22T19:16:33.011Z,7.70
2022-11-22T19:19:00.396Z,7.67
2022-11-22T19:21:28.379Z,7.93
2022-11-22T19:23:56.459Z,8.57
2022-11-22T19:26:24.966Z,8.87
2022-11-22T19:28:55.532Z,8.03
2022-11-22T19:31:23.798Z,8.83
2022-11-22T19:33:51.105Z,8.53
2022-11-22T19:36:19.749Z,9.17
2022-11-22T19:38:47.313Z,8.43
2022-11-22T19:41:16.953Z,9.47
2022-11-22T19:43:44.499Z,8.53
2022-11-22T19:46:12.352Z,8.97
2022-11-22T19:48:45.343Z,8.90
2022-11-22T19:51:15.039Z,8.57
2022-11-22T19:53:42.143Z,9.00
2022-11-22T19:56:16.041Z,7.97
2022-11-22T19:58:44.152Z,9.20
2022-11-22T20:01:12.662Z,8.50
2022-11-22T20:03:41.038Z,8.73
2022-11-22T20:06:09.285Z,8.50
2022-11-22T20:08:36.578Z,9.43
2022-11-22T20:11:05.510Z,9.20
2022-11-22T20:13:35.358Z,8.70
2022-11-22T20:16:08.725Z,8.67
2022-11-22T20:18:35.861Z,8.67
2022-11-22T20:21:03.494Z,9.20
2022-11-22T20:23:31.117Z,9.17
2022-11-22T20:26:02.295Z,9.30
2022-11-22T20:28:29.374Z,8.90
2022-11-22T20:31:09.641Z,9.33
2022-11-22T20:33:37.718Z,9.07
2022-11-22T20:36:05.827Z,9.87
2022-11-22T20:38:33.735Z,9.20
2022-11-22T20:41:01.225Z,9.67
2022-11-22T20:43:28.674Z,9.77
2022-11-22T20:46:01.922Z,10.50
2022-11-22T20:48:29.356Z,10.47
2022-11-22T20:50:56.585Z,9.87
2022-11-22T20:53:24.379Z,10.23
2022-11-22T20:55:51.800Z,9.87
2022-11-22T20:58:19.089Z,10.10
2022-11-22T21:00:46.189Z,10.13
2022-11-22T21:03:13.270Z,9.97
2022-11-22T21:05:40.351Z,9.87
2022-11-22T21:08:07.439Z,10.13
2022-11-22T21:10:34.712Z,10.43
2022-11-22T21:13:01.869Z,10.73
2022-11-22T21:15:28.952Z,10.50
2022-11-22T21:18:23.661Z,11.00
2022-11-22T21:20:43.586Z,11.00
2022-11-22T21:23:10.650Z,11.23
2022-11-22T21:25:37.794Z,10.87
2022-11-22T21:28:05.037Z,11.10
2022-11-22T21:30:32.092Z,11.07
2022-11-22T21:32:59.245Z,12.20
2022-11-22T21:35:27.485Z,11.53
2022-11-22T21:37:54.862Z,11.40
2022-11-22T21:40:21.967Z,12.07
2022-11-22T21:42:49.034Z,12.43
2022-11-22T21:45:16.096Z,9.37
2022-11-22T21:47:43.204Z,14.10
2022-11-22T21:50:12.403Z,12.67
2022-11-22T21:52:39.525Z,12.73
2022-11-22T21:55:07.450Z,13.07
2022-11-22T21:57:34.613Z,12.97
2022-11-22T22:00:01.672Z,13.67
2022-11-22T22:02:30.583Z,12.93
2022-11-22T22:04:57.662Z,12.23
2022-11-22T22:07:50.915Z,13.30
2022-11-22T22:10:12.478Z,12.40
2022-11-22T22:12:40.823Z,13.10
2022-11-22T22:15:08.878Z,13.67
2022-11-22T22:17:36.001Z,13.17
2022-11-22T22:20:03.106Z,12.63
2022-11-22T22:22:30.209Z,13.93
2022-11-22T22:24:57.282Z,13.23
2022-11-22T22:27:24.374Z,12.93
2022-11-22T22:29:51.455Z,13.10
2022-11-22T22:32:18.642Z,12.63
2022-11-22T22:34:45.701Z,13.13
2022-11-22T22:37:12.871Z,13.07
2022-11-22T22:39:40.125Z,12.60
2022-11-22T22:42:07.184Z,12.93
2022-11-22T22:44:34.345Z,13.60
2022-11-22T22:47:01.484Z,12.63
2022-11-22T22:49:29.756Z,12.73
2022-11-22T22:51:57.111Z,11.90
2022-11-22T22:54:24.199Z,11.83
2022-11-22T22:56:51.270Z,13.17
2022-11-22T22:59:18.357Z,12.87
2022-11-22T23:01:45.429Z,12.93
2022-11-22T23:04:12.734Z,12.17
2022-11-22T23:06:40.145Z,12.73
2022-11-22T23:09:08.736Z,13.57
2022-11-22T23:11:54.817Z,13.10
2022-11-22T23:14:25.618Z,10.40
2022-11-22T23:16:57.359Z,12.63
2022-11-22T23:19:25.650Z,12.80
2022-11-22T23:21:53.297Z,13.27
2022-11-22T23:24:20.516Z,12.50
2022-11-22T23:26:47.743Z,13.03
2022-11-22T23:29:14.838Z,12.67
2022-11-22T23:31:41.919Z,13.17
2022-11-22T23:34:10.395Z,12.60
2022-11-22T23:36:40.635Z,13.77
2022-11-22T23:39:08.931Z,12.80
2022-11-22T23:41:36.008Z,13.07
2022-11-22T23:44:03.149Z,12.97
2022-11-22T23:46:30.564Z,12.47
2022-11-22T23:48:58.688Z,13.77
2022-11-22T23:51:26.369Z,13.53
2022-11-22T23:54:00.311Z,12.80
2022-11-22T23:56:28.016Z,12.83
2022-11-22T23:58:55.473Z,13.33
